Time;durP1;ratioP1;P1;durP2;ratioP2;P2;SDS_P1;SDS_P2;PMS_P1;PMS_P2;Temp;Humidity;BMP_temperature;BMP_pressure;BME280_temperature;BME280_humidity;BME280_pressure;Samples;Min_cycle;Max_cycle;Signal;HPM_P1;HPM_P2
2021/07/18 00:01:25;;;;;;;3.20;2.47;;;;;;;19.23;69.10;102192.78;3600747;40;20213;-82
2021/07/18 00:03:50;;;;;;;10.43;2.90;;;;;;;19.36;68.86;102192.00;3600598;40;20233;-81
2021/07/18 00:06:15;;;;;;;6.77;2.80;;;;;;;19.49;68.18;102191.16;3597873;40;20229;-80
2021/07/18 00:08:40;;;;;;;5.70;3.00;;;;;;;19.43;68.19;102191.16;3600308;40;20211;-81
2021/07/18 00:11:06;;;;;;;5.17;2.90;;;;;;;19.29;68.69;102194.53;3590140;40;20283;-82
2021/07/18 00:13:31;;;;;;;7.37;3.60;;;;;;;19.27;69.52;102191.06;3594221;40;20629;-81
2021/07/18 00:15:57;;;;;;;6.03;3.13;;;;;;;19.09;69.73;102196.13;3596932;40;20229;-81
2021/07/18 00:18:22;;;;;;;7.03;3.40;;;;;;;19.28;69.00;102195.41;3600326;40;20222;-81
2021/07/18 00:20:49;;;;;;;5.37;2.97;;;;;;;19.08;69.51;102195.25;3592060;40;20234;-80
2021/07/18 00:23:16;;;;;;;6.53;2.47;;;;;;;19.05;69.63;102191.75;3590137;40;20229;-81
2021/07/18 00:25:41;;;;;;;4.77;2.93;;;;;;;19.21;69.20;102197.06;3600922;39;20295;-81
2021/07/18 00:28:06;;;;;;;6.30;3.10;;;;;;;19.06;69.61;102196.09;3591870;40;20229;-81
2021/07/18 00:30:31;;;;;;;5.27;2.63;;;;;;;18.88;70.18;102196.84;3597982;40;20542;-81
2021/07/18 00:32:57;;;;;;;6.13;3.10;;;;;;;18.94;70.10;102202.09;3589060;40;20248;-81
2021/07/18 00:35:22;;;;;;;7.97;3.17;;;;;;;19.11;70.03;102191.81;3597617;40;20245;-81
2021/07/18 00:37:47;;;;;;;3.40;2.37;;;;;;;18.88;70.19;102194.25;3592055;40;20235;-82
2021/07/18 00:40:13;;;;;;;6.70;2.80;;;;;;;18.99;70.14;102186.53;3597218;40;20825;-81
2021/07/18 00:42:39;;;;;;;5.57;2.83;;;;;;;18.99;69.80;102191.72;3594861;40;20577;-81
2021/07/18 00:45:07;;;;;;;7.90;3.40;;;;;;;18.93;70.39;102191.69;3593607;40;20318;-81
2021/07/18 00:47:33;;;;;;;5.87;2.77;;;;;;;19.01;70.07;102190.88;3597296;40;20267;-81
2021/07/18 00:50:03;;;;;;;5.77;3.03;;;;;;;18.95;70.28;102192.56;3587221;40;20623;-81
2021/07/18 00:52:29;;;;;;;5.03;3.10;;;;;;;18.88;70.43;102190.78;3597717;40;20265;-81
2021/07/18 00:54:54;;;;;;;7.40;2.80;;;;;;;18.91;70.54;102198.59;3597995;40;20257;-80
2021/07/18 00:57:20;;;;;;;6.97;2.53;;;;;;;18.84;70.48;102207.19;3589520;40;20236;-81
2021/07/18 00:59:46;;;;;;;5.87;2.37;;;;;;;18.79;71.01;102198.50;3591589;40;20236;-81
2021/07/18 01:02:11;;;;;;;5.73;2.90;;;;;;;18.95;71.09;102190.84;3596080;40;20704;-81
2021/07/18 01:04:37;;;;;;;4.20;2.90;;;;;;;18.90;71.11;102196.84;3589821;40;20249;-81
2021/07/18 01:07:02;;;;;;;4.57;3.03;;;;;;;18.98;70.71;102197.78;3598167;40;20748;-80
2021/07/18 01:09:28;;;;;;;4.63;2.57;;;;;;;18.82;70.74;102198.50;3598003;40;20286;-80
2021/07/18 01:11:53;;;;;;;7.23;3.10;;;;;;;18.93;70.49;102194.28;3597945;40;20245;-81
2021/07/18 01:14:18;;;;;;;5.87;3.13;;;;;;;18.98;70.57;102198.63;3597223;40;20229;-81
2021/07/18 01:16:45;;;;;;;7.67;2.57;;;;;;;18.91;70.64;102196.00;3594011;40;20279;-80
2021/07/18 01:19:12;;;;;;;7.83;3.30;;;;;;;18.99;70.55;102200.41;3591693;40;20217;-81
2021/07/18 01:21:39;;;;;;;3.57;2.33;;;;;;;18.80;70.58;102200.25;3590516;40;20302;-82
2021/07/18 01:24:05;;;;;;;4.53;2.70;;;;;;;18.73;71.10;102203.63;3597089;40;20233;-81
2021/07/18 01:26:32;;;;;;;4.33;2.83;;;;;;;18.81;71.07;102195.06;3599839;40;20283;-81
2021/07/18 01:28:57;;;;;;;3.97;2.87;;;;;;;18.67;71.38;102201.00;3590673;40;20764;-81
2021/07/18 01:31:22;;;;;;;7.30;2.77;;;;;;;18.56;71.69;102202.66;3599382;40;20265;-81
2021/07/18 01:33:48;;;;;;;4.17;2.50;;;;;;;18.38;72.24;102208.50;3596733;40;20245;-81
2021/07/18 01:36:13;;;;;;;4.33;2.13;;;;;;;18.42;72.33;102201.66;3587251;40;20244;-81
2021/07/18 01:38:38;;;;;;;4.47;2.70;;;;;;;18.33;72.65;102209.34;3596780;40;20236;-80
2021/07/18 01:41:04;;;;;;;3.97;2.53;;;;;;;18.28;72.83;102211.00;3597828;40;20244;-80
2021/07/18 01:43:29;;;;;;;4.50;2.20;;;;;;;18.22;73.10;102214.38;3597842;40;20249;-81
2021/07/18 01:45:54;;;;;;;5.10;3.30;;;;;;;18.30;73.10;102217.06;3597195;40;20753;-80
2021/07/18 01:48:20;;;;;;;4.77;2.83;;;;;;;18.30;72.92;102212.75;3588319;40;20580;-81
2021/07/18 01:50:45;;;;;;;4.17;2.43;;;;;;;18.26;72.98;102205.78;3587435;40;20244;-81
2021/07/18 01:53:10;;;;;;;5.47;2.73;;;;;;;18.27;72.81;102206.63;3596879;40;20237;-80
2021/07/18 01:55:36;;;;;;;3.07;2.37;;;;;;;18.27;72.68;102206.63;3589863;40;20225;-80
2021/07/18 01:58:02;;;;;;;7.03;3.00;;;;;;;18.53;72.37;102203.50;3599348;40;20256;-80
2021/07/18 02:00:27;;;;;;;3.73;2.80;;;;;;;18.35;72.46;102205.03;3598440;40;20228;-81
2021/07/18 02:02:53;;;;;;;4.00;2.20;;;;;;;18.23;72.90;102210.09;3599103;40;20283;-81
2021/07/18 02:05:20;;;;;;;3.73;1.90;;;;;;;18.14;73.03;102213.44;3598704;40;20326;-81
2021/07/18 02:07:46;;;;;;;4.20;2.33;;;;;;;18.04;73.23;102216.78;3591608;40;20230;-81
2021/07/18 02:10:19;;;;;;;4.77;2.57;;;;;;;17.96;73.55;102227.94;3588927;40;20256;-80
2021/07/18 02:12:48;;;;;;;3.73;2.10;;;;;;;17.94;73.57;102222.72;3579682;40;20241;-81
2021/07/18 02:15:16;;;;;;;2.40;1.77;;;;;;;17.92;73.55;102216.63;3592383;40;20229;-80
2021/07/18 02:17:42;;;;;;;3.80;2.40;;;;;;;17.84;73.66;102217.41;3585490;40;20225;-80
2021/07/18 02:20:10;;;;;;;6.73;3.07;;;;;;;17.78;74.03;102214.75;3587601;40;20229;-80
2021/07/18 02:22:48;;;;;;;4.40;2.88;;;;;;;17.97;73.66;102209.78;3598767;40;20627;-81
2021/07/18 02:25:16;;;;;;;6.40;2.90;;;;;;;18.20;72.93;102212.63;3597742;40;20310;-81
2021/07/18 02:27:41;;;;;;;5.47;2.53;;;;;;;18.04;73.41;102208.13;3591081;40;20257;-80
2021/07/18 02:30:10;;;;;;;5.07;3.27;;;;;;;18.11;73.39;102212.53;3586646;40;20229;-80
2021/07/18 02:32:35;;;;;;;4.70;2.40;;;;;;;17.98;73.36;102201.16;3586890;40;20250;-79
2021/07/18 02:35:03;;;;;;;4.20;2.37;;;;;;;17.86;74.07;102202.72;3588111;40;20631;-80
2021/07/18 02:37:28;;;;;;;3.97;2.73;;;;;;;17.90;74.14;102192.44;3587723;40;20237;-80
2021/07/18 02:39:53;;;;;;;4.07;2.50;;;;;;;17.85;74.06;102194.09;3586752;40;20234;-80
2021/07/18 02:42:19;;;;;;;4.57;2.93;;;;;;;17.81;74.24;102192.31;3587428;40;20241;-80
2021/07/18 02:44:44;;;;;;;3.97;2.50;;;;;;;17.75;74.44;102191.38;3587159;40;20589;-81
2021/07/18 02:47:09;;;;;;;5.13;2.03;;;;;;;17.78;74.23;102194.88;3587096;40;20210;-80
2021/07/18 02:49:34;;;;;;;4.47;3.00;;;;;;;17.89;74.16;102195.00;3581265;40;20229;-80
2021/07/18 02:52:00;;;;;;;4.90;2.50;;;;;;;17.98;73.92;102192.50;3577777;40;20250;-80
2021/07/18 02:54:25;;;;;;;4.87;2.47;;;;;;;17.92;73.90;102193.28;3585012;40;20257;-81
2021/07/18 02:56:50;;;;;;;4.97;2.40;;;;;;;17.93;73.94;102189.88;3585200;40;20234;-80
2021/07/18 02:59:15;;;;;;;3.30;2.10;;;;;;;17.86;73.33;102188.06;3584492;40;20251;-80
2021/07/18 03:01:41;;;;;;;4.73;2.90;;;;;;;17.93;74.26;102189.88;3575644;40;20496;-80
2021/07/18 03:04:06;;;;;;;3.50;2.40;;;;;;;17.81;74.45;102181.06;3584101;40;20238;-80
2021/07/18 03:06:31;;;;;;;4.73;2.63;;;;;;;17.80;74.61;102189.72;3585091;40;20219;-80
2021/07/18 03:08:56;;;;;;;4.37;2.87;;;;;;;17.76;75.08;102182.75;3584777;40;20226;-79
2021/07/18 03:11:22;;;;;;;5.50;2.87;;;;;;;18.03;74.07;102183.06;3584998;40;20311;-80
2021/07/18 03:13:47;;;;;;;6.70;2.73;;;;;;;17.97;74.19;102186.44;3574861;40;20249;-80
2021/07/18 03:16:12;;;;;;;7.03;3.10;;;;;;;18.05;73.76;102184.81;3577208;40;20573;-80
2021/07/18 03:18:37;;;;;;;5.17;2.73;;;;;;;18.12;73.66;102181.44;3574587;40;20238;-79
2021/07/18 03:21:03;;;;;;;3.97;2.40;;;;;;;17.98;73.82;102183.03;3575819;40;20250;-80
2021/07/18 03:23:28;;;;;;;4.80;2.50;;;;;;;18.00;74.29;102180.44;3584210;40;20237;-79
2021/07/18 03:25:53;;;;;;;6.60;3.17;;;;;;;18.13;73.82;102179.69;3575231;40;20248;-80
2021/07/18 03:28:18;;;;;;;6.70;2.80;;;;;;;18.15;73.47;102181.44;3584550;40;20302;-80
2021/07/18 03:30:44;;;;;;;3.27;2.67;;;;;;;18.08;73.71;102171.88;3576440;40;20221;-80
2021/07/18 03:33:09;;;;;;;4.93;2.60;;;;;;;18.02;73.44;102174.44;3586117;40;20246;-81
2021/07/18 03:35:34;;;;;;;5.43;2.80;;;;;;;18.04;74.01;102177.88;3588239;40;20611;-80
2021/07/18 03:38:00;;;;;;;4.83;2.90;;;;;;;17.91;74.46;102169.97;3596081;40;20213;-79
2021/07/18 03:40:28;;;;;;;4.27;2.70;;;;;;;17.91;74.52;102173.41;3595916;40;20241;-80
2021/07/18 03:42:53;;;;;;;4.27;2.90;;;;;;;17.97;75.12;102170.03;3596191;40;20248;-80
2021/07/18 03:45:18;;;;;;;5.67;2.90;;;;;;;17.97;74.34;102168.28;3588364;40;20226;-81
2021/07/18 03:47:44;;;;;;;4.37;2.43;;;;;;;18.12;74.07;102175.38;3586517;40;20225;-80
2021/07/18 03:50:10;;;;;;;3.63;2.73;;;;;;;18.17;74.16;102174.56;3592277;40;20555;-80
2021/07/18 03:52:35;;;;;;;4.50;2.67;;;;;;;18.07;74.49;102172.75;3587273;40;20241;-80
2021/07/18 03:55:01;;;;;;;5.70;3.03;;;;;;;18.28;73.93;102174.69;3584315;40;20225;-80
2021/07/18 03:57:27;;;;;;;6.13;2.80;;;;;;;18.19;74.34;102174.59;3595969;40;20225;-80
2021/07/18 03:59:52;;;;;;;5.83;3.17;;;;;;;18.46;73.53;102177.44;3595611;40;20673;-81
2021/07/18 04:02:18;;;;;;;5.30;2.97;;;;;;;18.22;74.21;102180.66;3588378;40;20249;-80
2021/07/18 04:04:43;;;;;;;5.80;3.33;;;;;;;18.27;74.25;102184.19;3595674;40;20228;-80
2021/07/18 04:07:08;;;;;;;4.50;2.83;;;;;;;18.21;74.76;102183.25;3595160;40;20282;-79
2021/07/18 04:09:33;;;;;;;6.20;3.13;;;;;;;18.30;74.24;102178.16;3592134;40;20216;-80
2021/07/18 04:11:59;;;;;;;4.27;2.83;;;;;;;18.25;74.29;102170.34;3606179;40;20244;-81
2021/07/18 04:14:24;;;;;;;3.97;2.60;;;;;;;18.23;74.71;102174.63;3599832;40;20229;-80
2021/07/18 04:16:49;;;;;;;5.87;2.97;;;;;;;18.29;74.87;102185.03;3591431;40;20232;-80
2021/07/18 04:19:14;;;;;;;4.80;2.93;;;;;;;18.36;74.80;102183.41;3587378;40;20527;-80
2021/07/18 04:21:40;;;;;;;8.20;3.40;;;;;;;18.35;74.38;102186.88;3585811;40;20228;-79
2021/07/18 04:24:05;;;;;;;5.50;2.90;;;;;;;18.42;74.35;102180.91;3595103;40;20475;-79
2021/07/18 04:26:30;;;;;;;5.63;3.33;;;;;;;18.49;74.23;102186.16;3589676;40;20226;-80
2021/07/18 04:28:56;;;;;;;8.13;3.17;;;;;;;18.48;74.16;102191.31;3584865;40;20564;-80
2021/07/18 04:31:21;;;;;;;7.00;3.23;;;;;;;18.49;74.12;102193.94;3585354;40;20221;-82
2021/07/18 04:33:49;;;;;;;6.53;3.10;;;;;;;18.51;74.99;102189.63;3576195;40;20243;-80
2021/07/18 04:36:14;;;;;;;3.43;2.77;;;;;;;18.53;74.80;102187.91;3585089;40;20596;-80
2021/07/18 04:38:39;;;;;;;7.70;3.30;;;;;;;18.61;74.84;102194.03;3591498;40;20236;-80
2021/07/18 04:41:04;;;;;;;5.07;3.60;;;;;;;18.93;73.94;102189.94;3594831;40;20230;-80
2021/07/18 04:43:30;;;;;;;8.73;3.13;;;;;;;18.87;73.56;102191.63;3582205;40;20297;-80
2021/07/18 04:45:55;;;;;;;4.60;2.83;;;;;;;18.93;73.62;102197.72;3585043;40;20226;-80
2021/07/18 04:48:20;;;;;;;6.40;3.03;;;;;;;19.19;72.46;102193.59;3591019;40;20233;-80
2021/07/18 04:50:47;;;;;;;5.83;3.27;;;;;;;19.21;72.27;102194.44;3594330;40;20217;-80
2021/07/18 04:53:12;;;;;;;7.20;5.07;;;;;;;19.48;71.13;102183.41;3584112;40;20245;-80
2021/07/18 04:55:37;;;;;;;5.67;3.80;;;;;;;19.40;71.23;102185.06;3593999;40;20267;-80
2021/07/18 04:58:03;;;;;;;5.67;3.70;;;;;;;19.30;71.62;102186.75;3594977;40;20496;-80
2021/07/18 05:00:28;;;;;;;5.60;3.10;;;;;;;19.70;70.59;102190.41;3594520;40;20221;-80
2021/07/18 05:02:53;;;;;;;6.50;3.33;;;;;;;19.72;70.20;102186.09;3591837;40;20628;-80
2021/07/18 05:05:19;;;;;;;4.73;2.77;;;;;;;19.50;70.85;102185.13;3588905;40;20243;-80
2021/07/18 05:07:50;;;;;;;6.13;2.97;;;;;;;19.73;70.28;102185.22;3575583;40;20233;-79
2021/07/18 05:10:17;;;;;;;2.70;2.50;;;;;;;19.44;71.00;102192.88;3574820;40;20768;-79
2021/07/18 05:12:44;;;;;;;5.30;3.20;;;;;;;19.53;70.88;102187.72;3586737;40;20280;-80
2021/07/18 05:15:09;;;;;;;5.67;2.93;;;;;;;19.62;70.59;102186.91;3594495;40;20302;-80
2021/07/18 05:17:35;;;;;;;7.53;2.90;;;;;;;19.54;71.36;102183.41;3580005;40;20241;-80
2021/07/18 05:20:00;;;;;;;4.60;2.23;;;;;;;19.67;70.60;102180.84;3584914;40;20238;-80
2021/07/18 05:22:25;;;;;;;4.37;2.77;;;;;;;19.68;70.33;102181.72;3591293;40;20230;-80
2021/07/18 05:24:52;;;;;;;4.60;2.73;;;;;;;19.78;70.26;102180.91;3589747;40;20229;-80
2021/07/18 05:27:18;;;;;;;7.33;3.00;;;;;;;19.82;70.02;102188.72;3585930;40;20274;-80
2021/07/18 05:29:43;;;;;;;5.50;2.60;;;;;;;19.87;69.66;102189.63;3576513;40;20367;-80
2021/07/18 05:32:08;;;;;;;3.67;2.63;;;;;;;19.83;69.83;102186.97;3585150;40;20240;-80
2021/07/18 05:34:34;;;;;;;2.80;2.43;;;;;;;20.05;68.76;102192.25;3585815;40;20224;-80
2021/07/18 05:36:59;;;;;;;6.80;2.60;;;;;;;19.86;69.63;102193.06;3576770;40;20485;-80
2021/07/18 05:39:24;;;;;;;3.33;2.47;;;;;;;19.75;70.01;102193.88;3576708;40;20237;-80
2021/07/18 05:41:49;;;;;;;3.87;2.07;;;;;;;19.91;69.56;102186.16;3586483;40;20229;-81
2021/07/18 05:44:15;;;;;;;5.17;2.90;;;;;;;19.95;69.28;102187.03;3577697;40;20245;-80
2021/07/18 05:46:40;;;;;;;4.70;2.70;;;;;;;19.92;69.50;102187.00;3577740;40;20218;-81
2021/07/18 05:49:05;;;;;;;4.57;1.77;;;;;;;19.78;70.67;102204.31;3586640;40;20620;-81
2021/07/18 05:51:31;;;;;;;5.70;2.87;;;;;;;19.89;69.05;102203.47;3577783;40;20575;-81
2021/07/18 05:53:56;;;;;;;5.73;2.60;;;;;;;19.93;69.30;102200.03;3586953;40;20269;-81
2021/07/18 05:56:21;;;;;;;4.03;2.33;;;;;;;19.84;70.65;102205.19;3586659;40;20616;-80
2021/07/18 05:58:47;;;;;;;4.90;2.63;;;;;;;19.98;69.64;102198.31;3586786;40;20226;-80
2021/07/18 06:01:13;;;;;;;4.10;2.70;;;;;;;20.22;69.08;102203.59;3587062;40;20230;-80
2021/07/18 06:03:38;;;;;;;5.20;2.50;;;;;;;20.42;67.86;102203.63;3594281;40;20241;-83
2021/07/18 06:06:03;;;;;;;4.97;2.70;;;;;;;20.50;68.19;102205.34;3588437;40;20268;-81
2021/07/18 06:08:28;;;;;;;5.53;2.57;;;;;;;20.79;67.11;102205.38;3596918;40;20412;-81
2021/07/18 06:10:54;;;;;;;4.87;2.60;;;;;;;20.74;67.02;102199.28;3587090;40;20551;-82
2021/07/18 06:13:19;;;;;;;5.10;2.90;;;;;;;21.10;65.37;102197.53;3595483;40;20245;-81
2021/07/18 06:15:44;;;;;;;4.97;3.00;;;;;;;21.16;65.92;102194.06;3596110;40;20485;-81
2021/07/18 06:18:09;;;;;;;5.30;2.70;;;;;;;21.17;64.68;102193.19;3587404;40;20237;-81
2021/07/18 06:20:38;;;;;;;4.60;2.47;;;;;;;21.25;65.68;102192.31;3595801;40;20229;-81
2021/07/18 06:23:05;;;;;;;8.33;2.77;;;;;;;21.37;64.47;102188.81;3595641;40;20551;-81
2021/07/18 06:25:30;;;;;;;4.90;2.60;;;;;;;21.31;64.77;102194.91;3591491;40;20242;-81
2021/07/18 06:27:55;;;;;;;4.27;2.50;;;;;;;21.62;63.00;102183.50;3595422;40;20213;-81
2021/07/18 06:30:21;;;;;;;3.77;2.50;;;;;;;21.58;64.02;102189.59;3585199;40;20607;-80
2021/07/18 06:32:46;;;;;;;3.77;2.00;;;;;;;21.59;64.32;102196.53;3593376;40;20241;-81
2021/07/18 06:35:11;;;;;;;4.27;2.47;;;;;;;21.73;63.50;102193.88;3594113;40;20221;-80
2021/07/18 06:37:37;;;;;;;4.83;2.60;;;;;;;21.86;62.86;102199.06;3585385;40;20237;-80
2021/07/18 06:40:04;;;;;;;4.20;2.40;;;;;;;21.92;62.52;102206.84;3595843;40;20233;-80
2021/07/18 06:42:30;;;;;;;4.97;2.10;;;;;;;21.99;62.58;102202.47;3596062;40;20522;-81
2021/07/18 06:44:58;;;;;;;5.93;2.37;;;;;;;22.09;61.38;102197.19;3596476;40;20275;-80
2021/07/18 06:47:26;;;;;;;4.57;2.20;;;;;;;22.20;60.72;102187.53;3596444;40;20229;-81
2021/07/18 06:49:52;;;;;;;5.13;2.40;;;;;;;22.32;61.29;102186.59;3596029;40;20266;-81
2021/07/18 06:52:17;;;;;;;4.40;2.10;;;;;;;22.25;60.58;102193.59;3586710;40;20240;-81
2021/07/18 06:54:42;;;;;;;4.60;2.30;;;;;;;22.38;61.33;102188.28;3595759;40;20218;-81
2021/07/18 06:57:08;;;;;;;3.20;2.17;;;;;;;22.50;60.69;102196.06;3595912;40;20355;-81
2021/07/18 06:59:33;;;;;;;4.03;2.00;;;;;;;22.61;59.77;102191.63;3595688;40;20233;-81
2021/07/18 07:01:59;;;;;;;3.03;2.13;;;;;;;22.55;60.62;102194.31;3596080;40;20225;-81
2021/07/18 07:04:25;;;;;;;3.23;2.20;;;;;;;22.69;59.52;102192.44;3595389;40;20261;-80
2021/07/18 07:06:50;;;;;;;6.03;2.40;;;;;;;23.04;58.37;102191.22;3586290;40;20226;-81
2021/07/18 07:09:15;;;;;;;5.33;2.30;;;;;;;23.00;58.32;102191.25;3595971;40;20232;-81
2021/07/18 07:11:40;;;;;;;6.70;2.37;;;;;;;23.16;58.95;102192.84;3596643;40;20217;-81
2021/07/18 07:14:06;;;;;;;5.43;2.40;;;;;;;23.43;57.27;102184.75;3588024;40;20229;-82
2021/07/18 07:16:31;;;;;;;4.72;2.13;;;;;;;23.56;56.48;102189.78;3596727;40;20237;-82
2021/07/18 07:18:56;;;;;;;4.83;2.03;;;;;;;23.13;58.91;102185.03;3597166;40;20228;-81
2021/07/18 07:21:22;;;;;;;2.60;2.00;;;;;;;23.38;57.00;102183.94;3597202;40;20623;-81
2021/07/18 07:23:47;;;;;;;5.93;2.23;;;;;;;23.41;57.90;102176.91;3587386;40;20302;-81
2021/07/18 07:26:12;;;;;;;4.73;2.10;;;;;;;23.47;57.69;102183.78;3597364;40;20287;-82
2021/07/18 07:28:37;;;;;;;4.13;2.50;;;;;;;23.73;56.35;102181.72;3597608;40;20234;-81
2021/07/18 07:31:03;;;;;;;3.93;2.00;;;;;;;23.62;57.49;102186.25;3594682;40;20233;-81
2021/07/18 07:33:29;;;;;;;2.97;1.80;;;;;;;23.76;56.11;102186.94;3588940;40;20260;-81
2021/07/18 07:35:54;;;;;;;4.57;2.07;;;;;;;23.67;56.58;102185.28;3598610;40;20858;-82
2021/07/18 07:38:20;;;;;;;2.80;1.77;;;;;;;23.92;57.06;102181.50;3597260;40;20221;-81
2021/07/18 07:40:45;;;;;;;5.63;2.08;;;;;;;23.96;56.24;102184.94;3587743;40;20647;-81
2021/07/18 07:43:11;;;;;;;4.82;2.33;;;;;;;24.13;55.81;102183.78;3589319;40;20493;-80
2021/07/18 07:45:37;;;;;;;5.25;2.50;;;;;;;24.11;55.13;102177.72;3588788;40;20933;-80
2021/07/18 07:48:03;;;;;;;3.47;2.13;;;;;;;24.02;55.55;102176.97;3598068;40;20274;-81
2021/07/18 07:50:28;;;;;;;4.65;2.47;;;;;;;24.24;55.03;102181.03;3598208;40;20575;-81
2021/07/18 07:52:54;;;;;;;4.82;2.50;;;;;;;24.35;55.45;102174.72;3597519;40;20241;-81
2021/07/18 07:55:19;;;;;;;4.70;2.55;;;;;;;24.50;54.99;102184.94;3597243;40;20236;-81
2021/07/18 07:57:44;;;;;;;3.55;2.10;;;;;;;24.69;53.37;102178.56;3587728;40;20252;-81
2021/07/18 08:00:15;;;;;;;4.78;2.42;;;;;;;24.60;54.11;102173.50;3586384;40;20216;-80
2021/07/18 08:02:41;;;;;;;4.45;2.40;;;;;;;24.81;54.16;102170.47;3608172;23;20956;-79
2021/07/18 08:05:07;;;;;;;4.63;2.30;;;;;;;25.01;53.85;102175.38;3588600;40;20270;-80
2021/07/18 08:07:33;;;;;;;2.60;1.75;;;;;;;24.89;52.88;102178.19;3577757;40;20238;-82
2021/07/18 08:09:58;;;;;;;4.57;2.15;;;;;;;24.99;53.47;102174.53;3586120;40;20225;-81
2021/07/18 08:12:23;;;;;;;3.55;1.75;;;;;;;25.05;53.09;102175.28;3588795;40;20240;-81
2021/07/18 08:14:49;;;;;;;4.68;2.28;;;;;;;25.07;52.77;102176.13;3595707;40;20237;-80
2021/07/18 08:17:14;;;;;;;3.42;2.33;;;;;;;24.93;52.67;102185.13;3594687;40;20608;-81
2021/07/18 08:19:43;;;;;;;3.13;2.20;;;;;;;24.90;52.23;102183.44;3586951;40;20235;-81
2021/07/18 08:22:08;;;;;;;4.03;2.03;;;;;;;25.01;52.10;102189.31;3596252;40;20285;-80
2021/07/18 08:24:35;;;;;;;3.80;1.88;;;;;;;25.13;52.10;102191.75;3572826;40;20250;-81
2021/07/18 08:27:00;;;;;;;3.38;1.98;;;;;;;25.25;51.75;102193.25;3575046;40;20604;-79
2021/07/18 08:29:26;;;;;;;3.60;1.98;;;;;;;25.20;50.73;102185.50;3585169;40;20229;-80
2021/07/18 08:31:56;;;;;;;4.00;1.70;;;;;;;25.37;52.45;102185.19;3583048;40;20269;-81
2021/07/18 08:34:22;;;;;;;5.32;2.53;;;;;;;25.61;50.80;102174.19;3574145;40;20221;-81
2021/07/18 08:36:47;;;;;;;4.72;2.38;;;;;;;25.89;49.24;102172.69;3575511;40;20257;-81
2021/07/18 08:39:12;;;;;;;2.55;1.70;;;;;;;25.92;49.69;102167.38;3586952;40;20246;-81
2021/07/18 08:41:43;;;;;;;5.35;1.92;;;;;;;26.18;50.97;102171.16;3593152;40;20259;-80
2021/07/18 08:44:10;;;;;;;3.17;1.67;;;;;;;26.53;47.43;102165.91;3591441;40;20312;-81
2021/07/18 08:46:36;;;;;;;4.72;2.00;;;;;;;26.49;49.23;102173.91;3583194;40;20226;-80
2021/07/18 08:49:01;;;;;;;4.05;1.77;;;;;;;26.49;48.76;102166.91;3583474;40;20226;-81
2021/07/18 08:51:26;;;;;;;4.65;1.77;;;;;;;26.51;49.06;102165.09;3584038;40;20218;-79
2021/07/18 08:53:55;;;;;;;4.57;2.28;;;;;;;26.51;48.26;102170.34;3573969;40;20302;-81
2021/07/18 08:56:20;;;;;;;3.75;2.15;;;;;;;26.26;48.77;102169.25;3584595;40;20237;-80
2021/07/18 08:58:45;;;;;;;3.83;2.00;;;;;;;26.03;49.64;102161.03;3592620;40;20688;-80
2021/07/18 09:01:13;;;;;;;4.03;1.98;;;;;;;26.12;50.35;102158.19;3569887;40;20242;-81
2021/07/18 09:03:39;;;;;;;2.35;1.73;;;;;;;26.38;49.01;102163.66;3582362;40;20328;-80
2021/07/18 09:06:09;;;;;;;5.72;2.35;;;;;;;26.56;48.06;102171.13;3576319;40;20253;-80
2021/07/18 09:08:48;;;;;;;5.68;1.80;;;;;;;26.73;47.44;102165.44;3591953;40;20244;-80
2021/07/18 09:11:23;;;;;;;2.60;1.80;;;;;;;27.08;45.39;102153.06;3592273;40;20484;-80
2021/07/18 09:14:07;;;;;;;3.15;1.70;;;;;;;27.03;46.45;102140.97;3582609;40;20250;-80
2021/07/18 09:16:37;;;;;;;2.58;1.75;;;;;;;27.20;46.34;102152.78;3592172;40;20244;-80
2021/07/18 09:19:31;;;;;;;3.53;2.20;;;;;;;27.43;45.97;102147.72;3583444;40;20229;-80
2021/07/18 09:21:57;;;;;;;5.00;2.20;;;;;;;27.51;46.16;102145.72;3591897;40;20236;-80
2021/07/18 09:24:24;;;;;;;3.95;1.90;;;;;;;27.73;44.67;102146.78;3583055;40;20326;-81
2021/07/18 09:27:19;;;;;;;3.15;1.73;;;;;;;27.73;45.29;102146.78;3592186;40;20225;-81
2021/07/18 09:29:46;;;;;;;2.75;2.38;;;;;;;27.49;45.98;102159.84;3581893;40;20229;-81
2021/07/18 09:32:14;;;;;;;5.13;1.98;;;;;;;27.49;45.05;102158.06;3582753;40;20273;-81
2021/07/18 09:34:43;;;;;;;5.15;2.13;;;;;;;27.37;46.78;102155.81;3588566;40;20237;-81
2021/07/18 09:37:18;;;;;;;4.65;2.00;;;;;;;27.47;45.65;102154.63;3589577;40;20278;-81
2021/07/18 09:40:08;;;;;;;6.50;2.30;;;;;;;27.59;45.23;102158.66;3589483;40;20249;-81
2021/07/18 09:42:47;;;;;;;4.80;1.95;;;;;;;27.34;45.28;102144.47;3580649;40;20261;-81
2021/07/18 09:45:12;;;;;;;3.63;2.10;;;;;;;27.55;46.50;102149.13;3589430;40;20225;-80
2021/07/18 09:48:04;;;;;;;4.90;2.15;;;;;;;27.59;45.12;102150.75;3583550;40;20232;-81
2021/07/18 09:50:38;;;;;;;4.65;2.30;;;;;;;27.66;45.92;102161.06;3580070;40;20516;-81
2021/07/18 09:53:19;;;;;;;6.22;2.40;;;;;;;27.73;45.58;102145.94;3581336;40;20612;-81
2021/07/18 09:55:58;;;;;;;5.65;2.38;;;;;;;27.78;43.11;102142.28;3581763;40;20291;-81
2021/07/18 09:58:25;;;;;;;4.53;2.13;;;;;;;27.34;44.34;102147.97;3580711;40;20232;-81
2021/07/18 10:00:51;;;;;;;3.22;2.05;;;;;;;27.15;46.13;102144.13;3561067;40;20258;-81
2021/07/18 10:03:24;;;;;;;3.42;2.22;;;;;;;27.13;46.67;102139.81;3572592;40;20544;-81
2021/07/18 10:06:25;;;;;;;3.25;2.53;;;;;;;27.21;45.85;102143.13;3583883;40;20233;-81
2021/07/18 10:08:52;;;;;;;5.15;2.38;;;;;;;27.25;45.53;102144.72;3550188;40;20262;-81
2021/07/18 10:11:21;;;;;;;4.85;2.28;;;;;;;27.20;46.49;102144.88;3583828;40;20571;-81
2021/07/18 10:13:52;;;;;;;6.05;2.20;;;;;;;27.49;45.32;102139.63;3592338;40;20741;-80
2021/07/18 10:16:19;;;;;;;5.38;2.00;;;;;;;27.69;44.01;102134.66;3593436;40;20241;-80
2021/07/18 10:18:48;;;;;;;4.53;2.13;;;;;;;27.52;46.15;102130.78;3593593;40;20237;-81
2021/07/18 10:21:18;;;;;;;5.60;2.42;;;;;;;27.54;45.85;102136.88;3593194;40;20217;-80
2021/07/18 10:23:46;;;;;;;5.75;2.30;;;;;;;27.35;46.18;102133.91;3593661;40;20511;-81
2021/07/18 10:26:13;;;;;;;5.13;2.40;;;;;;;27.38;46.85;102135.59;3584395;40;20229;-80
2021/07/18 10:28:39;;;;;;;3.97;2.70;;;;;;;27.55;46.92;102118.41;3583850;40;20217;-80
2021/07/18 10:31:08;;;;;;;7.82;2.53;;;;;;;27.84;44.70;102126.31;3594145;40;20221;-81
2021/07/18 10:33:35;;;;;;;5.93;2.00;;;;;;;27.73;44.85;102124.88;3594081;40;20236;-81
2021/07/18 10:36:01;;;;;;;4.50;2.15;;;;;;;27.94;44.71;102116.31;3593393;40;20233;-80
2021/07/18 10:38:26;;;;;;;4.75;2.00;;;;;;;28.05;44.27;102125.59;3583988;40;20284;-81
2021/07/18 10:40:57;;;;;;;6.28;2.70;;;;;;;27.92;45.00;102123.41;3593639;40;20233;-81
2021/07/18 10:43:45;;;;;;;4.53;2.25;;;;;;;28.03;44.14;102123.94;3593590;40;20256;-80
2021/07/18 10:46:13;;;;;;;3.67;2.00;;;;;;;27.99;44.49;102107.38;3593856;40;20483;-81
2021/07/18 10:48:46;;;;;;;5.03;2.42;;;;;;;27.76;44.83;102116.88;3584250;40;20229;-81
2021/07/18 10:51:33;;;;;;;5.50;2.20;;;;;;;27.73;45.60;102116.97;3584365;40;20244;-80
2021/07/18 10:54:08;;;;;;;4.38;2.25;;;;;;;27.96;46.01;102115.34;3593090;40;20378;-81
2021/07/18 10:56:45;;;;;;;3.92;1.80;;;;;;;28.07;44.14;102112.38;3593991;40;20240;-82
2021/07/18 10:59:36;;;;;;;5.07;2.10;;;;;;;27.81;44.94;102120.28;3593479;40;20516;-82
2021/07/18 11:02:17;;;;;;;6.97;2.72;;;;;;;27.63;45.88;102119.00;3592450;40;20257;-81
2021/07/18 11:04:43;;;;;;;6.05;2.30;;;;;;;27.67;44.62;102110.13;3592807;40;20267;-80
2021/07/18 11:07:21;;;;;;;4.32;1.67;;;;;;;27.75;43.90;102105.47;3591947;40;20249;-81
2021/07/18 11:09:59;;;;;;;3.43;2.00;;;;;;;27.96;45.28;102104.81;3584925;40;20232;-81
2021/07/18 11:12:34;;;;;;;4.18;2.00;;;;;;;28.18;43.89;102100.59;3593855;40;20537;-81
2021/07/18 11:15:12;;;;;;;5.55;2.38;;;;;;;28.27;42.90;102100.28;3584740;40;20253;-81
2021/07/18 11:18:02;;;;;;;4.17;2.00;;;;;;;28.35;43.71;102100.00;3585696;40;20247;-82
2021/07/18 11:20:47;;;;;;;5.00;1.90;;;;;;;28.47;43.38;102092.63;3584974;40;20540;-80
2021/07/18 11:23:18;;;;;;;4.53;1.70;;;;;;;28.41;42.97;102084.88;3595556;40;20559;-81
2021/07/18 11:25:53;;;;;;;5.55;1.95;;;;;;;28.31;42.91;102085.22;3586479;40;20229;-81